sensor_id;sensor_type;location;lat;lon;timestamp;pressure;altitude;pressure_sealevel;temperature;humidity
13954;BME280;7049;49.444;8.522;2023-02-19T00:04:58;78431.22;;;-3.47;83.36
13954;BME280;7049;49.444;8.522;2023-02-19T00:09:59;78412.38;;;-3.47;83.04
13954;BME280;7049;49.444;8.522;2023-02-19T00:15:02;78416.56;;;-3.47;83.34
13954;BME280;7049;49.444;8.522;2023-02-19T00:20:03;78410.28;;;-3.47;83.31
13954;BME280;7049;49.444;8.522;2023-02-19T00:25:05;78410.28;;;-3.47;83.50
13954;BME280;7049;49.444;8.522;2023-02-19T00:30:09;78416.56;;;-3.47;83.55
13954;BME280;7049;49.444;8.522;2023-02-19T00:35:11;78435.41;;;-3.47;84.67
13954;BME280;7049;49.444;8.522;2023-02-19T00:40:12;78429.13;;;-3.47;84.51
13954;BME280;7049;49.444;8.522;2023-02-19T00:45:15;78418.66;;;-3.47;84.08
13954;BME280;7049;49.444;8.522;2023-02-19T00:50:17;78420.75;;;-3.47;84.88
13954;BME280;7049;49.444;8.522;2023-02-19T00:55:18;78429.13;;;-3.47;85.26
13954;BME280;7049;49.444;8.522;2023-02-19T01:00:21;78431.22;;;-3.47;86.26
13954;BME280;7049;49.444;8.522;2023-02-19T01:05:22;78427.03;;;-3.47;86.38
13954;BME280;7049;49.444;8.522;2023-02-19T01:10:24;78439.59;;;-3.47;87.00
13954;BME280;7049;49.444;8.522;2023-02-19T01:15:27;78433.31;;;-3.47;87.03
13954;BME280;7049;49.444;8.522;2023-02-19T01:20:28;78450.06;;;-3.47;87.39
13954;BME280;7049;49.444;8.522;2023-02-19T01:25:29;78450.06;;;-3.47;87.72
13954;BME280;7049;49.444;8.522;2023-02-19T01:30:34;78445.88;;;-3.47;87.42
13954;BME280;7049;49.444;8.522;2023-02-19T01:40:44;78427.03;;;-3.47;88.08
13954;BME280;7049;49.444;8.522;2023-02-19T01:45:46;78433.31;;;-3.47;89.15
13954;BME280;7049;49.444;8.522;2023-02-19T01:50:50;78450.06;;;-3.47;90.11
13954;BME280;7049;49.444;8.522;2023-02-19T01:55:57;78450.06;;;-3.47;90.42
13954;BME280;7049;49.444;8.522;2023-02-19T02:01:03;78445.88;;;-3.47;91.04
13954;BME280;7049;49.444;8.522;2023-02-19T02:06:10;78437.50;;;-3.47;91.94
13954;BME280;7049;49.444;8.522;2023-02-19T02:11:14;78437.50;;;-3.47;92.67
13954;BME280;7049;49.444;8.522;2023-02-19T02:16:22;78443.78;;;-3.47;93.36
13954;BME280;7049;49.444;8.522;2023-02-19T02:21:47;78450.06;;;-3.47;94.05
13954;BME280;7049;49.444;8.522;2023-02-19T02:27:01;78447.97;;;-3.47;94.66
13954;BME280;7049;49.444;8.522;2023-02-19T02:32:10;78450.06;;;-3.47;95.03
13954;BME280;7049;49.444;8.522;2023-02-19T02:37:14;78454.25;;;-3.47;95.54
13954;BME280;7049;49.444;8.522;2023-02-19T02:42:15;78464.72;;;-3.47;96.16
13954;BME280;7049;49.444;8.522;2023-02-19T02:47:33;78454.25;;;-3.47;96.45
13954;BME280;7049;49.444;8.522;2023-02-19T02:52:47;78454.25;;;-3.47;96.90
13954;BME280;7049;49.444;8.522;2023-02-19T02:58:09;78466.81;;;-3.47;97.39
13954;BME280;7049;49.444;8.522;2023-02-19T03:03:14;78475.16;;;-3.47;97.75
13954;BME280;7049;49.444;8.522;2023-02-19T03:08:22;78460.53;;;-3.47;97.83
13954;BME280;7049;49.444;8.522;2023-02-19T03:13:27;78462.63;;;-3.47;98.38
13954;BME280;7049;49.444;8.522;2023-02-19T03:18:53;78458.44;;;-3.47;98.70
13954;BME280;7049;49.444;8.522;2023-02-19T03:24:13;78483.53;;;-3.47;99.34
13954;BME280;7049;49.444;8.522;2023-02-19T03:29:36;78491.91;;;-3.47;99.47
13954;BME280;7049;49.444;8.522;2023-02-19T03:34:43;78485.63;;;-3.47;99.86
13954;BME280;7049;49.444;8.522;2023-02-19T03:39:46;78487.72;;;-3.47;100.00
13954;BME280;7049;49.444;8.522;2023-02-19T03:44:57;78496.09;;;-3.47;100.00
13954;BME280;7049;49.444;8.522;2023-02-19T03:50:29;78485.63;;;-3.47;100.00
13954;BME280;7049;49.444;8.522;2023-02-19T03:56:06;78496.09;;;-3.47;100.00
13954;BME280;7049;49.444;8.522;2023-02-19T04:01:38;78498.19;;;-3.47;100.00
13954;BME280;7049;49.444;8.522;2023-02-19T04:06:45;78508.66;;;-3.47;100.00
13954;BME280;7049;49.444;8.522;2023-02-19T04:11:53;78519.13;;;-3.47;100.00
13954;BME280;7049;49.444;8.522;2023-02-19T04:16:58;78512.84;;;-3.47;100.00
13954;BME280;7049;49.444;8.522;2023-02-19T04:22:01;78521.22;;;-3.47;100.00
13954;BME280;7049;49.444;8.522;2023-02-19T04:27:05;78519.13;;;-3.47;100.00
13954;BME280;7049;49.444;8.522;2023-02-19T04:32:09;78533.78;;;-3.47;100.00
13954;BME280;7049;49.444;8.522;2023-02-19T04:37:11;78535.88;;;-3.47;100.00
13954;BME280;7049;49.444;8.522;2023-02-19T04:42:13;78542.16;;;-3.47;100.00
13954;BME280;7049;49.444;8.522;2023-02-19T04:47:15;78537.97;;;-3.47;100.00
13954;BME280;7049;49.444;8.522;2023-02-19T04:52:18;78537.97;;;-3.47;100.00
13954;BME280;7049;49.444;8.522;2023-02-19T04:57:19;78535.88;;;-3.47;100.00
13954;BME280;7049;49.444;8.522;2023-02-19T05:02:21;78533.78;;;-3.47;100.00
13954;BME280;7049;49.444;8.522;2023-02-19T05:07:24;78535.88;;;-3.47;100.00
13954;BME280;7049;49.444;8.522;2023-02-19T05:12:25;78525.41;;;-3.47;100.00
13954;BME280;7049;49.444;8.522;2023-02-19T05:17:26;78523.31;;;-3.47;100.00
13954;BME280;7049;49.444;8.522;2023-02-19T05:22:29;78531.69;;;-3.47;100.00
13954;BME280;7049;49.444;8.522;2023-02-19T05:27:31;78521.22;;;-3.47;100.00
13954;BME280;7049;49.444;8.522;2023-02-19T05:32:33;78533.78;;;-3.47;100.00
13954;BME280;7049;49.444;8.522;2023-02-19T05:37:36;78537.97;;;-3.47;100.00
13954;BME280;7049;49.444;8.522;2023-02-19T05:42:38;78537.97;;;-3.47;100.00
13954;BME280;7049;49.444;8.522;2023-02-19T05:47:42;78537.97;;;-3.47;100.00
13954;BME280;7049;49.444;8.522;2023-02-19T05:52:45;78546.31;;;-3.47;100.00
13954;BME280;7049;49.444;8.522;2023-02-19T05:57:47;78552.59;;;-3.47;100.00
13954;BME280;7049;49.444;8.522;2023-02-19T06:02:49;78548.41;;;-3.47;100.00
13954;BME280;7049;49.444;8.522;2023-02-19T06:07:51;78569.34;;;-3.47;100.00
13954;BME280;7049;49.444;8.522;2023-02-19T06:12:53;78565.16;;;-3.47;100.00
13954;BME280;7049;49.444;8.522;2023-02-19T06:17:54;78575.63;;;-3.47;100.00
13954;BME280;7049;49.444;8.522;2023-02-19T06:22:57;78588.19;;;-3.47;100.00
13954;BME280;7049;49.444;8.522;2023-02-19T06:27:58;78584.00;;;-3.47;100.00
13954;BME280;7049;49.444;8.522;2023-02-19T06:33:00;78600.75;;;-3.47;100.00
13954;BME280;7049;49.444;8.522;2023-02-19T06:38:03;78604.94;;;-3.47;100.00
13954;BME280;7049;49.444;8.522;2023-02-19T06:43:04;78600.75;;;-3.47;100.00
13954;BME280;7049;49.444;8.522;2023-02-19T06:48:05;78596.56;;;-3.47;100.00
13954;BME280;7049;49.444;8.522;2023-02-19T06:53:08;78600.75;;;-3.47;100.00
13954;BME280;7049;49.444;8.522;2023-02-19T06:58:10;78598.66;;;-3.47;100.00
13954;BME280;7049;49.444;8.522;2023-02-19T07:03:12;78600.75;;;-3.47;100.00
13954;BME280;7049;49.444;8.522;2023-02-19T07:08:15;78623.78;;;-3.47;100.00
13954;BME280;7049;49.444;8.522;2023-02-19T07:13:16;78625.84;;;-3.47;100.00
13954;BME280;7049;49.444;8.522;2023-02-19T07:18:18;78634.22;;;-3.47;99.90
13954;BME280;7049;49.444;8.522;2023-02-19T07:23:21;78642.59;;;-3.47;100.00
13954;BME280;7049;49.444;8.522;2023-02-19T07:28:22;78650.97;;;-3.47;100.00
13954;BME280;7049;49.444;8.522;2023-02-19T07:33:24;78632.13;;;-3.47;97.95
13954;BME280;7049;49.444;8.522;2023-02-19T07:38:27;78619.59;;;-3.47;97.70
13954;BME280;7049;49.444;8.522;2023-02-19T07:43:30;78596.56;;;-3.47;96.93
13954;BME280;7049;49.444;8.522;2023-02-19T07:48:33;78588.19;;;-3.47;96.24
13954;BME280;7049;49.444;8.522;2023-02-19T07:53:36;78579.81;;;-3.47;95.64
13954;BME280;7049;49.444;8.522;2023-02-19T07:58:37;78567.25;;;-3.47;95.60
13954;BME280;7049;49.444;8.522;2023-02-19T08:03:39;78560.97;;;-3.47;95.17
13954;BME280;7049;49.444;8.522;2023-02-19T08:08:42;78563.06;;;-3.47;94.08
13954;BME280;7049;49.444;8.522;2023-02-19T08:13:43;78579.81;;;-3.47;94.97
13954;BME280;7049;49.444;8.522;2023-02-19T08:18:45;78577.72;;;-3.47;93.62
13954;BME280;7049;49.444;8.522;2023-02-19T08:23:49;78571.44;;;-3.47;93.17
13954;BME280;7049;49.444;8.522;2023-02-19T08:28:50;78563.06;;;-3.47;92.22
13954;BME280;7049;49.444;8.522;2023-02-19T08:33:52;78560.97;;;-3.47;91.36
13954;BME280;7049;49.444;8.522;2023-02-19T08:38:54;78563.06;;;-3.47;91.28
13954;BME280;7049;49.444;8.522;2023-02-19T08:43:56;78567.25;;;-3.47;91.13
13954;BME280;7049;49.444;8.522;2023-02-19T08:48:57;78556.78;;;-3.47;89.15
13954;BME280;7049;49.444;8.522;2023-02-19T08:54:02;78546.31;;;-3.47;88.21
13954;BME280;7049;49.444;8.522;2023-02-19T08:59:04;78552.59;;;-3.47;87.30
13954;BME280;7049;49.444;8.522;2023-02-19T09:04:07;78556.78;;;-3.47;87.80
13954;BME280;7049;49.444;8.522;2023-02-19T09:09:13;78558.88;;;-3.47;87.37
13954;BME280;7049;49.444;8.522;2023-02-19T09:14:14;78550.50;;;-3.47;86.49
13954;BME280;7049;49.444;8.522;2023-02-19T09:19:16;78546.31;;;-3.47;85.67
13954;BME280;7049;49.444;8.522;2023-02-19T09:24:18;78544.25;;;-3.47;86.38
13954;BME280;7049;49.444;8.522;2023-02-19T09:29:21;78548.41;;;-3.47;85.54
13954;BME280;7049;49.444;8.522;2023-02-19T09:34:25;78542.16;;;-3.47;86.24
13954;BME280;7049;49.444;8.522;2023-02-19T09:39:28;78533.78;;;-3.47;83.99
13954;BME280;7049;49.444;8.522;2023-02-19T09:44:32;78525.41;;;-3.47;83.94
13954;BME280;7049;49.444;8.522;2023-02-19T09:49:36;78527.50;;;-3.47;83.63
13954;BME280;7049;49.444;8.522;2023-02-19T09:54:41;78527.50;;;-3.47;83.63
13954;BME280;7049;49.444;8.522;2023-02-19T09:59:45;78529.59;;;-3.47;83.15
13954;BME280;7049;49.444;8.522;2023-02-19T10:04:49;78523.31;;;-3.47;83.55
13954;BME280;7049;49.444;8.522;2023-02-19T10:09:57;78525.41;;;-3.47;84.00
13954;BME280;7049;49.444;8.522;2023-02-19T10:15:04;78500.28;;;-3.47;82.88
13954;BME280;7049;49.444;8.522;2023-02-19T10:20:12;78479.34;;;-3.47;82.02
13954;BME280;7049;49.444;8.522;2023-02-19T10:25:16;78462.63;;;-3.47;80.67
13954;BME280;7049;49.444;8.522;2023-02-19T10:30:19;78473.06;;;-3.47;81.46
13954;BME280;7049;49.444;8.522;2023-02-19T10:35:21;78454.25;;;-3.47;80.04
13954;BME280;7049;49.444;8.522;2023-02-19T10:40:26;78435.41;;;-3.47;78.23
13954;BME280;7049;49.444;8.522;2023-02-19T10:45:32;78427.03;;;-3.47;77.21
13954;BME280;7049;49.444;8.522;2023-02-19T10:50:36;78416.56;;;-3.47;75.75
13954;BME280;7049;49.444;8.522;2023-02-19T10:55:39;78412.38;;;-3.47;74.17
13954;BME280;7049;49.444;8.522;2023-02-19T11:00:41;78408.19;;;-3.47;73.27
13954;BME280;7049;49.444;8.522;2023-02-19T11:05:58;78393.56;;;-3.47;72.97
13954;BME280;7049;49.444;8.522;2023-02-19T11:11:02;78401.91;;;-3.47;71.64
13954;BME280;7049;49.444;8.522;2023-02-19T11:16:04;78408.19;;;-3.47;71.40
13954;BME280;7049;49.444;8.522;2023-02-19T11:21:06;78424.94;;;-3.47;70.26
13954;BME280;7049;49.444;8.522;2023-02-19T11:26:17;78424.94;;;-3.47;69.57
13954;BME280;7049;49.444;8.522;2023-02-19T11:31:23;78427.03;;;-3.47;70.59
13954;BME280;7049;49.444;8.522;2023-02-19T11:36:30;78410.28;;;-3.47;67.08
13954;BME280;7049;49.444;8.522;2023-02-19T11:41:47;78404.00;;;-3.47;66.53
13954;BME280;7049;49.444;8.522;2023-02-19T11:52:24;78360.06;;;-3.47;62.88
13954;BME280;7049;49.444;8.522;2023-02-19T11:57:40;78351.69;;;-3.47;63.09
13954;BME280;7049;49.444;8.522;2023-02-19T12:02:57;78341.22;;;-3.47;62.55
13954;BME280;7049;49.444;8.522;2023-02-19T12:08:32;78320.31;;;-3.47;60.68
13954;BME280;7049;49.444;8.522;2023-02-19T12:13:52;78324.47;;;-3.47;60.36
13954;BME280;7049;49.444;8.522;2023-02-19T12:19:06;78324.47;;;-3.47;62.80
13954;BME280;7049;49.444;8.522;2023-02-19T12:35:39;78362.16;;;-3.47;61.69
13954;BME280;7049;49.444;8.522;2023-02-19T12:40:57;78360.06;;;-3.47;60.74
13954;BME280;7049;49.444;8.522;2023-02-19T12:46:07;78370.53;;;-3.47;62.06
13954;BME280;7049;49.444;8.522;2023-02-19T12:51:14;78378.91;;;-3.47;60.49
13954;BME280;7049;49.444;8.522;2023-02-19T12:56:20;78370.53;;;-3.47;61.04
13954;BME280;7049;49.444;8.522;2023-02-19T13:01:27;78370.53;;;-3.47;61.18
13954;BME280;7049;49.444;8.522;2023-02-19T13:06:35;78370.53;;;-3.47;63.79
13954;BME280;7049;49.444;8.522;2023-02-19T13:11:43;78351.69;;;-3.47;61.41
13954;BME280;7049;49.444;8.522;2023-02-19T13:16:51;78347.50;;;-3.47;60.65
13954;BME280;7049;49.444;8.522;2023-02-19T13:22:02;78343.31;;;-3.47;61.40
13954;BME280;7049;49.444;8.522;2023-02-19T13:27:36;78341.22;;;-3.47;61.76
13954;BME280;7049;49.444;8.522;2023-02-19T13:32:53;78326.56;;;-3.47;59.57
13954;BME280;7049;49.444;8.522;2023-02-19T13:38:00;78326.56;;;-3.47;61.31
13954;BME280;7049;49.444;8.522;2023-02-19T13:43:04;78309.84;;;-3.47;59.71
13954;BME280;7049;49.444;8.522;2023-02-19T13:48:24;78307.75;;;-3.47;60.45
13954;BME280;7049;49.444;8.522;2023-02-19T13:53:49;78320.31;;;-3.47;60.97
13954;BME280;7049;49.444;8.522;2023-02-19T13:58:52;78303.56;;;-3.47;61.12
13954;BME280;7049;49.444;8.522;2023-02-19T14:04:07;78307.75;;;-3.47;60.22
13954;BME280;7049;49.444;8.522;2023-02-19T14:14:43;78320.31;;;-3.47;56.91
13954;BME280;7049;49.444;8.522;2023-02-19T14:19:52;78341.22;;;-3.47;57.70
13954;BME280;7049;49.444;8.522;2023-02-19T14:24:54;78349.59;;;-3.47;59.79
13954;BME280;7049;49.444;8.522;2023-02-19T14:29:57;78364.25;;;-3.47;60.87
13954;BME280;7049;49.444;8.522;2023-02-19T14:35:00;78366.34;;;-3.47;60.63
13954;BME280;7049;49.444;8.522;2023-02-19T14:40:02;78372.63;;;-3.47;60.80
13954;BME280;7049;49.444;8.522;2023-02-19T14:45:05;78376.81;;;-3.47;62.78
13954;BME280;7049;49.444;8.522;2023-02-19T14:50:13;78383.09;;;-3.47;60.71
13954;BME280;7049;49.444;8.522;2023-02-19T14:55:22;78395.66;;;-3.47;62.36
13954;BME280;7049;49.444;8.522;2023-02-19T15:00:26;78410.28;;;-3.47;63.06
13954;BME280;7049;49.444;8.522;2023-02-19T15:05:31;78412.38;;;-3.47;61.17
13954;BME280;7049;49.444;8.522;2023-02-19T15:10:34;78420.75;;;-3.47;61.77
13954;BME280;7049;49.444;8.522;2023-02-19T15:15:38;78408.19;;;-3.47;60.59
13954;BME280;7049;49.444;8.522;2023-02-19T15:20:41;78424.94;;;-3.47;61.56
13954;BME280;7049;49.444;8.522;2023-02-19T15:25:43;78420.75;;;-3.47;60.66
13954;BME280;7049;49.444;8.522;2023-02-19T15:30:44;78437.50;;;-3.47;61.04
13954;BME280;7049;49.444;8.522;2023-02-19T15:35:49;78441.69;;;-3.47;61.67
13954;BME280;7049;49.444;8.522;2023-02-19T15:40:51;78447.97;;;-3.47;62.69
13954;BME280;7049;49.444;8.522;2023-02-19T15:45:56;78471.00;;;-3.47;63.59
13954;BME280;7049;49.444;8.522;2023-02-19T15:51:04;78485.63;;;-3.47;65.71
13954;BME280;7049;49.444;8.522;2023-02-19T15:56:13;78494.00;;;-3.47;65.61
13954;BME280;7049;49.444;8.522;2023-02-19T16:01:19;78504.47;;;-3.47;66.42
13954;BME280;7049;49.444;8.522;2023-02-19T16:06:26;78529.59;;;-3.47;68.16
13954;BME280;7049;49.444;8.522;2023-02-19T16:11:34;78535.88;;;-3.47;72.35
13954;BME280;7049;49.444;8.522;2023-02-19T16:16:38;78542.16;;;-3.47;75.63
13954;BME280;7049;49.444;8.522;2023-02-19T16:21:43;78548.41;;;-3.47;75.07
13954;BME280;7049;49.444;8.522;2023-02-19T16:26:44;78563.06;;;-3.47;75.29
13954;BME280;7049;49.444;8.522;2023-02-19T16:31:47;78554.69;;;-3.47;74.88
13954;BME280;7049;49.444;8.522;2023-02-19T16:36:50;78571.44;;;-3.47;75.30
13954;BME280;7049;49.444;8.522;2023-02-19T16:42:10;78590.28;;;-3.47;75.75
13954;BME280;7049;49.444;8.522;2023-02-19T16:47:24;78600.75;;;-3.47;76.21
13954;BME280;7049;49.444;8.522;2023-02-19T16:52:28;78600.75;;;-3.47;75.79
13954;BME280;7049;49.444;8.522;2023-02-19T16:57:29;78611.22;;;-3.47;76.12
13954;BME280;7049;49.444;8.522;2023-02-19T17:02:31;78615.41;;;-3.47;76.81
13954;BME280;7049;49.444;8.522;2023-02-19T17:07:34;78630.03;;;-3.47;77.45
13954;BME280;7049;49.444;8.522;2023-02-19T17:12:35;78648.88;;;-3.47;78.89
13954;BME280;7049;49.444;8.522;2023-02-19T17:17:37;78674.00;;;-3.47;79.58
13954;BME280;7049;49.444;8.522;2023-02-19T17:22:39;78682.38;;;-3.47;79.74
13954;BME280;7049;49.444;8.522;2023-02-19T17:27:41;78692.84;;;-3.47;80.72
13954;BME280;7049;49.444;8.522;2023-02-19T17:32:42;78701.22;;;-3.47;81.19
13954;BME280;7049;49.444;8.522;2023-02-19T17:37:45;78701.22;;;-3.47;81.25
13954;BME280;7049;49.444;8.522;2023-02-19T17:42:46;78730.50;;;-3.47;82.09
13954;BME280;7049;49.444;8.522;2023-02-19T17:47:48;78728.41;;;-3.47;82.54
13954;BME280;7049;49.444;8.522;2023-02-19T17:52:51;78732.59;;;-3.47;83.11
13954;BME280;7049;49.444;8.522;2023-02-19T17:57:53;78751.44;;;-3.47;84.18
13954;BME280;7049;49.444;8.522;2023-02-19T18:02:54;78755.63;;;-3.47;84.58
13954;BME280;7049;49.444;8.522;2023-02-19T18:07:57;78770.28;;;-3.47;85.14
13954;BME280;7049;49.444;8.522;2023-02-19T18:12:59;78780.75;;;-3.47;85.85
13954;BME280;7049;49.444;8.522;2023-02-19T18:18:00;78780.75;;;-3.47;86.05
13954;BME280;7049;49.444;8.522;2023-02-19T18:23:05;78793.31;;;-3.47;86.57
13954;BME280;7049;49.444;8.522;2023-02-19T18:28:06;78803.78;;;-3.47;86.71
13954;BME280;7049;49.444;8.522;2023-02-19T18:33:08;78814.22;;;-3.47;87.12
13954;BME280;7049;49.444;8.522;2023-02-19T18:38:13;78814.22;;;-3.47;87.55
13954;BME280;7049;49.444;8.522;2023-02-19T18:43:15;78830.97;;;-3.47;87.54
13954;BME280;7049;49.444;8.522;2023-02-19T18:48:16;78837.25;;;-3.47;88.20
13954;BME280;7049;49.444;8.522;2023-02-19T18:53:19;78828.88;;;-3.47;87.88
13954;BME280;7049;49.444;8.522;2023-02-19T18:58:20;78839.34;;;-3.47;87.53
13954;BME280;7049;49.444;8.522;2023-02-19T19:03:24;78843.53;;;-3.47;87.89
13954;BME280;7049;49.444;8.522;2023-02-19T19:08:27;78847.72;;;-3.47;88.47
13954;BME280;7049;49.444;8.522;2023-02-19T19:13:28;78835.16;;;-3.47;88.04
13954;BME280;7049;49.444;8.522;2023-02-19T19:18:30;78847.72;;;-3.47;88.40
13954;BME280;7049;49.444;8.522;2023-02-19T19:23:32;78858.19;;;-3.47;89.38
13954;BME280;7049;49.444;8.522;2023-02-19T19:28:34;78872.84;;;-3.47;90.75
13954;BME280;7049;49.444;8.522;2023-02-19T19:33:35;78877.03;;;-3.47;91.01
13954;BME280;7049;49.444;8.522;2023-02-19T19:38:38;78889.59;;;-3.47;91.75
13954;BME280;7049;49.444;8.522;2023-02-19T19:43:40;78885.41;;;-3.47;91.81
13954;BME280;7049;49.444;8.522;2023-02-19T19:48:41;78881.22;;;-3.47;91.76
13954;BME280;7049;49.444;8.522;2023-02-19T19:53:47;78885.41;;;-3.47;91.81
13954;BME280;7049;49.444;8.522;2023-02-19T19:58:48;78902.16;;;-3.47;92.06
13954;BME280;7049;49.444;8.522;2023-02-19T20:03:50;78904.22;;;-3.47;92.60
13954;BME280;7049;49.444;8.522;2023-02-19T20:08:53;78914.69;;;-3.47;93.04
13954;BME280;7049;49.444;8.522;2023-02-19T20:13:54;78927.25;;;-3.47;93.44
13954;BME280;7049;49.444;8.522;2023-02-19T20:18:56;78914.69;;;-3.47;93.49
13954;BME280;7049;49.444;8.522;2023-02-19T20:23:59;78918.88;;;-3.47;93.87
13954;BME280;7049;49.444;8.522;2023-02-19T20:29:00;78925.16;;;-3.47;94.09
13954;BME280;7049;49.444;8.522;2023-02-19T20:34:03;78935.63;;;-3.47;94.45
13954;BME280;7049;49.444;8.522;2023-02-19T20:39:06;78939.81;;;-3.47;94.06
13954;BME280;7049;49.444;8.522;2023-02-19T20:44:07;78935.63;;;-3.47;94.31
13954;BME280;7049;49.444;8.522;2023-02-19T20:49:09;78935.63;;;-3.47;94.15
13954;BME280;7049;49.444;8.522;2023-02-19T20:54:12;78944.00;;;-3.47;93.29
13954;BME280;7049;49.444;8.522;2023-02-19T20:59:14;78941.91;;;-3.47;92.77
13954;BME280;7049;49.444;8.522;2023-02-19T21:04:16;78952.38;;;-3.47;92.92
13954;BME280;7049;49.444;8.522;2023-02-19T21:09:20;78952.38;;;-3.47;92.92
13954;BME280;7049;49.444;8.522;2023-02-19T21:14:22;78948.19;;;-3.47;92.62
13954;BME280;7049;49.444;8.522;2023-02-19T21:19:23;78939.81;;;-3.47;92.16
13954;BME280;7049;49.444;8.522;2023-02-19T21:24:26;78948.19;;;-3.47;92.23
13954;BME280;7049;49.444;8.522;2023-02-19T21:29:28;78939.81;;;-3.47;92.04
13954;BME280;7049;49.444;8.522;2023-02-19T21:34:29;78950.28;;;-3.47;92.22
13954;BME280;7049;49.444;8.522;2023-02-19T21:39:32;78944.00;;;-3.47;92.48
13954;BME280;7049;49.444;8.522;2023-02-19T21:44:34;78960.75;;;-3.47;92.17
13954;BME280;7049;49.444;8.522;2023-02-19T21:49:35;78973.31;;;-3.47;92.71
13954;BME280;7049;49.444;8.522;2023-02-19T21:54:38;78973.31;;;-3.47;92.54
13954;BME280;7049;49.444;8.522;2023-02-19T21:59:39;78983.78;;;-3.47;92.50
13954;BME280;7049;49.444;8.522;2023-02-19T22:04:41;78987.97;;;-3.47;91.93
13954;BME280;7049;49.444;8.522;2023-02-19T22:09:44;78973.31;;;-3.47;91.41
13954;BME280;7049;49.444;8.522;2023-02-19T22:14:45;78969.13;;;-3.47;91.16
13954;BME280;7049;49.444;8.522;2023-02-19T22:19:46;78973.31;;;-3.47;91.36
13954;BME280;7049;49.444;8.522;2023-02-19T22:24:49;78975.41;;;-3.47;91.47
13954;BME280;7049;49.444;8.522;2023-02-19T22:29:51;78977.50;;;-3.47;91.04
13954;BME280;7049;49.444;8.522;2023-02-19T22:34:52;78990.06;;;-3.47;91.22
13954;BME280;7049;49.444;8.522;2023-02-19T22:39:55;78998.44;;;-3.47;90.98
13954;BME280;7049;49.444;8.522;2023-02-19T22:44:56;78973.31;;;-3.47;89.60
13954;BME280;7049;49.444;8.522;2023-02-19T22:49:57;78983.78;;;-3.47;89.70
13954;BME280;7049;49.444;8.522;2023-02-19T22:55:00;78981.69;;;-3.47;89.39
13954;BME280;7049;49.444;8.522;2023-02-19T23:00:03;78985.88;;;-3.47;89.97
13954;BME280;7049;49.444;8.522;2023-02-19T23:05:05;78998.44;;;-3.47;89.66
13954;BME280;7049;49.444;8.522;2023-02-19T23:10:09;78994.25;;;-3.47;89.57
13954;BME280;7049;49.444;8.522;2023-02-19T23:15:10;78992.16;;;-3.47;89.44
13954;BME280;7049;49.444;8.522;2023-02-19T23:20:12;79017.25;;;-3.47;89.80
13954;BME280;7049;49.444;8.522;2023-02-19T23:25:15;79011.00;;;-3.47;89.44
13954;BME280;7049;49.444;8.522;2023-02-19T23:30:17;79015.19;;;-3.47;89.76
13954;BME280;7049;49.444;8.522;2023-02-19T23:35:19;79015.19;;;-3.47;89.62
13954;BME280;7049;49.444;8.522;2023-02-19T23:40:21;79027.72;;;-3.47;89.18
13954;BME280;7049;49.444;8.522;2023-02-19T23:45:23;79002.63;;;-3.47;87.55
13954;BME280;7049;49.444;8.522;2023-02-19T23:50:24;79006.81;;;-3.47;87.81
13954;BME280;7049;49.444;8.522;2023-02-19T23:55:27;79021.44;;;-3.47;87.81
